createdAt,value
2023-01-28T00:00:54.208Z,5.43
2023-01-28T00:03:22.317Z,5.67
2023-01-28T00:05:50.301Z,5.43
2023-01-28T00:08:18.083Z,5.80
2023-01-28T00:10:46.075Z,6.17
2023-01-28T00:13:15.600Z,7.47
2023-01-28T00:15:45.201Z,7.10
2023-01-28T00:18:13.716Z,7.40
2023-01-28T00:20:41.598Z,7.27
2023-01-28T00:23:09.482Z,7.00
2023-01-28T00:25:37.413Z,7.87
2023-01-28T00:28:05.522Z,7.33
2023-01-28T00:30:33.560Z,6.60
2023-01-28T00:33:02.839Z,7.53
2023-01-28T00:35:31.025Z,7.60
2023-01-28T00:37:59.760Z,7.10
2023-01-28T00:40:29.328Z,7.77
2023-01-28T00:42:57.891Z,7.20
2023-01-28T00:45:25.723Z,7.90
2023-01-28T00:47:53.622Z,7.33
2023-01-28T00:50:22.991Z,6.87
2023-01-28T00:52:50.880Z,7.60
2023-01-28T00:55:19.955Z,7.17
2023-01-28T00:57:48.756Z,7.90
2023-01-28T01:00:19.108Z,8.03
2023-01-28T01:02:47.050Z,8.23
2023-01-28T01:05:15.714Z,8.20
2023-01-28T01:07:45.674Z,8.20
2023-01-28T01:10:15.691Z,8.13
2023-01-28T01:12:44.727Z,8.50
2023-01-28T01:15:13.424Z,10.73
2023-01-28T01:17:43.981Z,8.97
2023-01-28T01:20:15.551Z,8.80
2023-01-28T01:22:43.489Z,8.57
2023-01-28T01:25:13.944Z,8.83
2023-01-28T01:27:45.054Z,10.50
2023-01-28T01:30:14.180Z,8.93
2023-01-28T01:32:42.249Z,8.13
2023-01-28T01:35:11.755Z,8.00
2023-01-28T01:37:40.860Z,7.77
2023-01-28T01:40:10.428Z,8.00
2023-01-28T01:42:39.574Z,6.67
2023-01-28T01:45:08.777Z,7.10
2023-01-28T01:47:42.689Z,5.17
2023-01-28T01:50:18.673Z,5.70
2023-01-28T01:52:49.505Z,6.10
2023-01-28T01:55:22.331Z,6.23
2023-01-28T01:57:56.589Z,5.30
2023-01-28T02:00:25.490Z,5.60
2023-01-28T02:02:54.612Z,5.63
2023-01-28T02:05:23.578Z,4.77
2023-01-28T02:11:38.292Z,7.03
2023-01-28T02:14:14.453Z,4.13
2023-01-28T02:16:42.284Z,4.50
2023-01-28T02:19:13.374Z,6.07
2023-01-28T02:22:00.350Z,4.17
2023-01-28T02:25:01.262Z,5.10
2023-01-28T02:27:36.575Z,4.20
2023-01-28T02:30:12.137Z,4.73
2023-01-28T02:32:46.376Z,5.07
2023-01-28T02:35:19.668Z,4.83
2023-01-28T02:37:54.428Z,4.57
2023-01-28T02:40:29.822Z,5.50
2023-01-28T02:42:58.247Z,7.30
2023-01-28T02:45:52.969Z,5.90
2023-01-28T02:48:23.697Z,6.63
2023-01-28T02:51:00.727Z,6.17
2023-01-28T02:53:44.836Z,6.70
2023-01-28T02:56:22.040Z,8.07
2023-01-28T02:58:59.759Z,6.93
2023-01-28T03:01:36.757Z,6.57
2023-01-28T03:04:08.663Z,7.37
2023-01-28T03:06:41.508Z,7.10
2023-01-28T03:09:29.338Z,7.30
2023-01-28T03:12:19.495Z,6.17
2023-01-28T03:15:09.380Z,7.13
2023-01-28T03:18:00.906Z,8.23
2023-01-28T03:20:53.970Z,7.10
2023-01-28T03:23:51.411Z,7.10
2023-01-28T03:26:41.613Z,7.30
2023-01-28T03:29:30.904Z,7.23
2023-01-28T03:32:17.930Z,6.80
2023-01-28T03:35:05.839Z,7.47
2023-01-28T03:37:35.085Z,7.70
2023-01-28T03:40:18.903Z,8.30
2023-01-28T03:42:46.715Z,8.37
2023-01-28T03:45:34.878Z,8.70
2023-01-28T03:48:05.238Z,8.60
2023-01-28T03:50:35.386Z,8.87
2023-01-28T03:53:16.420Z,8.50
2023-01-28T03:55:54.682Z,8.93
2023-01-28T03:58:23.051Z,9.93
2023-01-28T04:00:52.049Z,8.93
2023-01-28T04:03:21.644Z,9.00
2023-01-28T04:06:04.227Z,8.67
2023-01-28T04:08:54.495Z,8.10
2023-01-28T04:11:28.351Z,8.67
2023-01-28T04:13:57.795Z,8.37
2023-01-28T04:16:26.920Z,9.27
2023-01-28T04:18:55.315Z,9.00
2023-01-28T04:21:24.645Z,9.53
2023-01-28T04:23:53.295Z,9.30
2023-01-28T04:26:21.127Z,9.50
2023-01-28T04:28:48.921Z,9.57
2023-01-28T04:31:27.261Z,9.07
2023-01-28T04:34:15.199Z,9.50
2023-01-28T04:37:16.640Z,9.83
2023-01-28T04:39:56.519Z,9.27
2023-01-28T04:42:54.281Z,9.23
2023-01-28T04:45:48.072Z,9.47
2023-01-28T04:48:34.739Z,9.50
2023-01-28T04:51:17.876Z,9.50
2023-01-28T04:54:07.557Z,9.17
2023-01-28T04:56:36.618Z,10.13
2023-01-28T04:59:05.283Z,9.17
2023-01-28T05:01:35.818Z,9.23
2023-01-28T05:04:05.722Z,9.50
2023-01-28T05:06:35.919Z,9.83
2023-01-28T05:09:11.083Z,9.53
2023-01-28T05:11:39.366Z,9.87
2023-01-28T05:14:08.305Z,10.00
2023-01-28T05:16:46.044Z,9.53
2023-01-28T05:19:13.899Z,9.13
2023-01-28T05:21:43.593Z,9.90
2023-01-28T05:24:35.526Z,8.50
2023-01-28T05:27:04.451Z,8.90
2023-01-28T05:29:33.879Z,8.80
2023-01-28T05:32:01.777Z,8.80
2023-01-28T05:34:30.828Z,8.80
2023-01-28T05:37:01.294Z,8.87
2023-01-28T05:39:32.385Z,9.00
2023-01-28T05:42:01.839Z,8.47
2023-01-28T05:44:30.530Z,9.23
2023-01-28T05:47:18.661Z,8.93
2023-01-28T05:49:56.810Z,9.13
2023-01-28T05:52:33.513Z,10.27
2023-01-28T05:55:02.344Z,8.33
2023-01-28T05:57:31.592Z,9.03
2023-01-28T05:59:59.448Z,8.03
2023-01-28T06:02:27.928Z,8.67
2023-01-28T06:04:58.343Z,7.83
2023-01-28T06:07:26.183Z,8.37
2023-01-28T06:09:53.963Z,8.20
2023-01-28T06:12:23.083Z,8.03
2023-01-28T06:15:13.087Z,8.17
2023-01-28T06:18:13.144Z,8.83
2023-01-28T06:20:41.846Z,8.67
2023-01-28T06:23:09.627Z,8.33
2023-01-28T06:25:37.557Z,7.73
2023-01-28T06:28:10.773Z,8.00
2023-01-28T06:30:40.004Z,7.57
2023-01-28T06:33:07.830Z,7.60
2023-01-28T06:35:36.714Z,6.90
2023-01-28T06:38:05.125Z,7.93
2023-01-28T06:40:32.919Z,7.10
2023-01-28T06:43:00.714Z,6.93
2023-01-28T06:45:28.450Z,6.70
2023-01-28T06:47:57.621Z,6.53
2023-01-28T06:50:25.767Z,5.60
2023-01-28T06:52:53.532Z,6.53
2023-01-28T06:55:21.271Z,7.90
2023-01-28T06:57:49.035Z,6.20
2023-01-28T07:00:17.790Z,6.20
2023-01-28T07:02:45.884Z,6.23
2023-01-28T07:05:15.168Z,5.67
2023-01-28T07:07:42.886Z,7.37
2023-01-28T07:10:11.959Z,5.87
2023-01-28T07:12:40.089Z,7.73
2023-01-28T07:15:10.845Z,5.80
2023-01-28T07:17:40.469Z,5.93
2023-01-28T07:20:09.320Z,5.53
2023-01-28T07:22:39.526Z,6.30
2023-01-28T07:25:08.362Z,5.80
2023-01-28T07:27:36.461Z,6.20
2023-01-28T07:30:04.493Z,5.73
2023-01-28T07:32:32.387Z,7.67
2023-01-28T07:35:00.114Z,7.27
2023-01-28T07:37:27.858Z,7.10
2023-01-28T07:39:56.996Z,7.07
2023-01-28T07:42:24.855Z,7.00
2023-01-28T07:44:53.863Z,8.13
2023-01-28T07:47:21.736Z,6.90
2023-01-28T07:49:49.635Z,6.93
2023-01-28T07:52:17.371Z,6.63
2023-01-28T07:54:45.170Z,6.33
2023-01-28T07:57:14.357Z,6.87
2023-01-28T07:59:42.121Z,7.77
2023-01-28T08:02:13.298Z,6.27
2023-01-28T08:04:41.556Z,5.40
2023-01-28T08:07:09.437Z,7.90
2023-01-28T08:09:37.257Z,5.90
2023-01-28T08:12:05.570Z,5.27
2023-01-28T08:14:34.686Z,5.40
2023-01-28T08:17:02.620Z,9.57
2023-01-28T08:19:30.343Z,6.60
2023-01-28T08:21:58.112Z,5.53
2023-01-28T08:24:26.050Z,6.33
2023-01-28T08:26:53.836Z,5.73
2023-01-28T08:29:21.841Z,7.03
2023-01-28T08:31:51.032Z,10.00
2023-01-28T08:34:18.849Z,13.37
2023-01-28T08:36:46.650Z,4.50
2023-01-28T08:39:14.492Z,5.40
2023-01-28T08:41:42.289Z,6.73
2023-01-28T08:44:10.017Z,6.83
2023-01-28T08:46:37.855Z,4.80
2023-01-28T08:49:07.018Z,4.60
2023-01-28T08:51:34.850Z,8.80
2023-01-28T08:54:02.749Z,17.03
2023-01-28T08:56:31.461Z,5.40
2023-01-28T08:58:59.205Z,5.50
2023-01-28T09:01:29.358Z,6.30
2023-01-28T09:03:57.336Z,10.60
2023-01-28T09:06:26.588Z,4.83
2023-01-28T09:08:57.394Z,4.67
2023-01-28T09:11:25.355Z,5.57
2023-01-28T09:13:53.236Z,4.80
2023-01-28T09:16:21.082Z,4.23
2023-01-28T09:18:49.348Z,5.00
2023-01-28T09:21:17.350Z,4.60
2023-01-28T09:23:46.537Z,4.93
2023-01-28T09:26:14.944Z,5.60
2023-01-28T09:28:42.828Z,5.00
2023-01-28T09:31:12.773Z,7.00
2023-01-28T09:33:41.643Z,4.97
2023-01-28T09:36:12.532Z,5.77
2023-01-28T09:38:40.401Z,4.77
2023-01-28T09:41:26.109Z,5.37
2023-01-28T09:44:25.372Z,4.50
2023-01-28T09:46:53.473Z,6.47
2023-01-28T09:49:28.998Z,4.50
2023-01-28T09:51:57.828Z,5.03
2023-01-28T09:54:34.453Z,4.80
2023-01-28T09:57:09.592Z,4.40
2023-01-28T09:59:38.072Z,4.33
2023-01-28T10:02:27.221Z,4.70
2023-01-28T10:05:04.481Z,4.40
2023-01-28T10:07:41.700Z,4.97
2023-01-28T10:10:15.003Z,4.70
2023-01-28T10:13:04.826Z,4.40
2023-01-28T10:15:58.216Z,4.60
2023-01-28T10:18:34.281Z,4.90
2023-01-28T10:21:09.371Z,6.23
2023-01-28T10:23:58.436Z,4.53
2023-01-28T10:26:31.301Z,7.83
2023-01-28T10:29:06.053Z,5.97
2023-01-28T10:31:38.852Z,4.93
2023-01-28T10:34:06.993Z,5.93
2023-01-28T10:36:35.434Z,4.83
2023-01-28T10:39:03.457Z,5.20
2023-01-28T10:41:31.241Z,4.80
2023-01-28T10:44:00.660Z,4.80
2023-01-28T10:46:33.392Z,4.63
2023-01-28T10:49:11.496Z,4.70
2023-01-28T10:51:40.845Z,5.27
2023-01-28T10:54:20.728Z,5.40
2023-01-28T10:56:51.435Z,4.77
2023-01-28T10:59:23.747Z,4.57
2023-01-28T11:01:54.152Z,5.57
2023-01-28T11:04:25.657Z,4.50
2023-01-28T11:07:00.160Z,4.73
2023-01-28T11:09:30.836Z,5.20
2023-01-28T11:11:59.662Z,4.47
2023-01-28T11:14:28.947Z,5.10
2023-01-28T11:16:59.327Z,6.23
2023-01-28T11:19:33.528Z,4.80
2023-01-28T11:22:01.911Z,5.20
2023-01-28T11:24:33.291Z,6.27
2023-01-28T11:27:16.175Z,6.00
2023-01-28T11:29:46.036Z,6.60
2023-01-28T11:32:22.146Z,8.50
2023-01-28T11:34:51.477Z,9.53
2023-01-28T11:37:22.793Z,9.17
2023-01-28T11:39:50.798Z,10.37
2023-01-28T11:42:20.779Z,10.40
2023-01-28T11:44:51.187Z,11.13
2023-01-28T11:47:35.419Z,12.00
2023-01-28T11:50:23.999Z,12.40
2023-01-28T11:53:07.029Z,12.20
2023-01-28T11:55:46.312Z,12.33
2023-01-28T11:58:24.040Z,10.70
2023-01-28T12:01:03.889Z,8.87
2023-01-28T12:03:49.961Z,9.77
2023-01-28T12:06:40.066Z,10.90
2023-01-28T12:09:17.793Z,8.73
2023-01-28T12:12:13.570Z,9.83
2023-01-28T12:15:05.904Z,9.13
2023-01-28T12:17:48.217Z,9.07
2023-01-28T12:20:25.767Z,9.27
2023-01-28T12:23:19.437Z,8.03
2023-01-28T12:26:09.006Z,8.83
2023-01-28T12:28:52.584Z,8.73
2023-01-28T12:31:40.180Z,7.60
2023-01-28T12:34:41.166Z,8.40
2023-01-28T12:37:17.826Z,8.80
2023-01-28T12:39:59.229Z,9.20
2023-01-28T12:42:36.778Z,9.00
2023-01-28T12:45:16.374Z,10.17
2023-01-28T12:47:49.311Z,10.40
2023-01-28T12:50:23.845Z,11.93
2023-01-28T12:52:56.990Z,10.33
2023-01-28T12:55:39.612Z,10.57
2023-01-28T12:58:17.059Z,10.67
2023-01-28T13:00:49.684Z,11.03
2023-01-28T13:03:23.574Z,9.93
2023-01-28T13:05:56.965Z,10.03
2023-01-28T13:08:26.629Z,10.57
2023-01-28T13:10:56.086Z,10.70
2023-01-28T13:13:30.350Z,11.00
2023-01-28T13:15:58.546Z,10.50
2023-01-28T13:18:35.328Z,10.23
2023-01-28T13:21:06.586Z,10.57
2023-01-28T13:23:40.363Z,10.23
2023-01-28T13:26:27.748Z,10.23
2023-01-28T13:29:08.182Z,10.40
2023-01-28T13:31:40.207Z,19.97
2023-01-28T13:34:09.585Z,10.97
2023-01-28T13:36:45.878Z,11.00
2023-01-28T13:39:20.607Z,10.97
2023-01-28T13:41:51.835Z,11.30
2023-01-28T13:44:29.184Z,10.77
2023-01-28T13:46:59.699Z,11.10
2023-01-28T13:49:33.866Z,17.10
2023-01-28T13:52:09.121Z,12.47
2023-01-28T13:54:39.785Z,11.73
2023-01-28T13:58:13.117Z,10.70
2023-01-28T14:00:53.137Z,11.60
2023-01-28T14:03:50.127Z,11.47
2023-01-28T14:06:37.654Z,11.17
2023-01-28T14:09:23.769Z,10.83
2023-01-28T14:12:29.189Z,12.90
2023-01-28T14:15:17.347Z,10.27
2023-01-28T14:17:47.126Z,10.40
2023-01-28T14:20:19.675Z,10.47
2023-01-28T14:22:48.495Z,11.73
2023-01-28T14:25:24.702Z,9.80
2023-01-28T14:27:54.748Z,9.70
2023-01-28T14:30:29.989Z,9.80
2023-01-28T14:32:57.956Z,10.93
2023-01-28T14:35:32.562Z,11.13
2023-01-28T14:38:07.806Z,10.50
2023-01-28T14:40:40.469Z,10.90
2023-01-28T14:43:10.125Z,10.23
2023-01-28T14:45:57.505Z,10.13
2023-01-28T14:48:27.480Z,11.40
2023-01-28T14:51:09.824Z,9.30
2023-01-28T14:54:03.012Z,10.13
2023-01-28T14:56:44.345Z,9.97
2023-01-28T14:59:19.460Z,9.73
2023-01-28T15:01:48.998Z,9.63
2023-01-28T15:04:25.316Z,9.03
2023-01-28T15:06:53.199Z,9.73
2023-01-28T15:09:24.605Z,9.63
2023-01-28T15:11:58.114Z,10.60
2023-01-28T15:14:28.831Z,10.60
2023-01-28T15:16:57.380Z,13.33
2023-01-28T15:19:28.985Z,10.07
2023-01-28T15:21:58.582Z,10.60
2023-01-28T15:24:26.908Z,9.90
2023-01-28T15:26:56.168Z,10.30
2023-01-28T15:29:31.538Z,10.37
2023-01-28T15:32:00.162Z,10.30
2023-01-28T15:34:30.309Z,10.33
2023-01-28T15:36:58.746Z,12.20
2023-01-28T15:39:28.598Z,15.13
2023-01-28T15:42:00.288Z,17.73
2023-01-28T15:44:31.278Z,10.50
2023-01-28T15:47:00.390Z,11.17
2023-01-28T15:49:32.361Z,12.43
2023-01-28T15:52:00.631Z,15.83
2023-01-28T15:54:30.429Z,12.80
2023-01-28T15:57:10.493Z,13.37
2023-01-28T15:59:38.270Z,15.20
2023-01-28T16:02:18.542Z,14.93
2023-01-28T16:04:57.226Z,14.57
2023-01-28T16:07:25.288Z,15.07
2023-01-28T16:09:54.198Z,15.00
2023-01-28T16:12:24.310Z,16.57
2023-01-28T16:14:55.298Z,15.37
2023-01-28T16:17:25.957Z,15.50
2023-01-28T16:19:59.842Z,14.73
2023-01-28T16:22:34.445Z,16.60
2023-01-28T16:25:03.144Z,15.30
2023-01-28T16:27:32.400Z,16.93
2023-01-28T16:30:00.411Z,16.50
2023-01-28T16:32:30.536Z,18.80
2023-01-28T16:34:58.464Z,21.87
2023-01-28T16:39:55.161Z,22.47
2023-01-28T16:42:23.021Z,22.60
2023-01-28T16:44:52.304Z,25.37
2023-01-28T16:47:20.127Z,23.30
2023-01-28T16:49:47.972Z,24.13
2023-01-28T16:52:17.191Z,23.03
2023-01-28T16:54:46.464Z,24.43
2023-01-28T16:57:16.566Z,26.20
2023-01-28T16:59:44.530Z,27.77
2023-01-28T17:02:15.436Z,24.17
2023-01-28T17:04:43.334Z,23.93
2023-01-28T17:07:11.320Z,24.70
2023-01-28T17:09:39.130Z,26.13
2023-01-28T17:12:07.579Z,24.00
2023-01-28T17:14:35.443Z,25.57
2023-01-28T17:17:03.241Z,24.27
2023-01-28T17:19:32.484Z,23.57
2023-01-28T17:22:00.358Z,29.67
2023-01-28T17:24:30.375Z,39.33
2023-01-28T17:26:58.982Z,27.20
2023-01-28T17:29:27.070Z,33.10
2023-01-28T17:31:54.872Z,32.27
2023-01-28T17:34:22.866Z,33.00
2023-01-28T17:36:52.001Z,28.60
2023-01-28T17:39:19.773Z,30.60
2023-01-28T17:41:47.544Z,29.90
2023-01-28T17:44:15.376Z,30.27
2023-01-28T17:46:43.313Z,32.40
2023-01-28T17:49:11.497Z,31.83
2023-01-28T17:51:39.262Z,31.53
2023-01-28T17:54:08.472Z,31.47
2023-01-28T17:56:36.282Z,33.47
2023-01-28T17:59:06.497Z,30.73
2023-01-28T18:01:37.088Z,28.17
2023-01-28T18:04:05.834Z,31.00
2023-01-28T18:06:34.153Z,36.83
2023-01-28T18:09:02.055Z,37.27
2023-01-28T18:11:32.842Z,34.97
2023-01-28T18:14:00.711Z,35.43
2023-01-28T18:16:28.530Z,42.53
2023-01-28T18:18:56.282Z,42.47
2023-01-28T18:21:43.046Z,36.37
2023-01-28T18:24:14.619Z,58.77
2023-01-28T18:26:43.776Z,65.93
2023-01-28T18:29:16.498Z,58.83
2023-01-28T18:31:44.387Z,56.63
2023-01-28T18:34:12.488Z,52.73
2023-01-28T18:36:40.360Z,58.47
2023-01-28T18:39:08.142Z,50.63
2023-01-28T18:41:35.925Z,51.03
2023-01-28T18:44:05.421Z,54.93
2023-01-28T18:46:33.254Z,49.50
2023-01-28T18:49:01.153Z,43.70
2023-01-28T18:51:30.658Z,41.73
2023-01-28T18:53:59.863Z,45.93
2023-01-28T18:56:28.189Z,43.97
2023-01-28T18:58:57.384Z,44.87
2023-01-28T19:01:27.143Z,42.03
2023-01-28T19:03:55.818Z,45.97
2023-01-28T19:06:24.838Z,41.30
2023-01-28T19:08:54.510Z,43.10
2023-01-28T19:11:23.191Z,40.67
2023-01-28T19:13:51.200Z,45.47
2023-01-28T19:16:19.226Z,42.40
2023-01-28T19:18:54.231Z,44.93
2023-01-28T19:21:22.636Z,74.30
2023-01-28T19:23:56.190Z,62.40
2023-01-28T19:26:25.212Z,47.57
2023-01-28T19:28:53.023Z,47.23
2023-01-28T19:31:22.393Z,52.13
2023-01-28T19:33:54.381Z,53.57
2023-01-28T19:36:24.383Z,51.50
2023-01-28T19:38:52.164Z,50.93
2023-01-28T19:41:20.023Z,46.47
2023-01-28T19:43:48.385Z,46.60
2023-01-28T19:46:18.015Z,48.23
2023-01-28T19:48:46.505Z,44.70
2023-01-28T19:51:16.123Z,49.30
2023-01-28T19:53:45.924Z,46.33
2023-01-28T19:56:15.532Z,48.50
2023-01-28T19:58:44.632Z,49.73
2023-01-28T20:01:14.603Z,51.00
2023-01-28T20:03:43.426Z,50.03
2023-01-28T20:06:13.751Z,56.00
2023-01-28T20:08:42.012Z,52.93
2023-01-28T20:11:13.388Z,52.63
2023-01-28T20:13:42.903Z,49.30
2023-01-28T20:16:16.436Z,51.13
2023-01-28T20:18:44.512Z,48.43
2023-01-28T20:21:12.306Z,51.70
2023-01-28T20:23:40.041Z,51.93
2023-01-28T20:26:07.829Z,51.03
2023-01-28T20:28:36.970Z,51.03
2023-01-28T20:31:06.354Z,49.53
2023-01-28T20:33:34.207Z,48.17
2023-01-28T20:36:02.946Z,47.10
2023-01-28T20:38:31.109Z,47.47
2023-01-28T20:40:58.948Z,48.33
2023-01-28T20:43:28.639Z,48.93
2023-01-28T20:46:04.837Z,47.57
2023-01-28T20:48:33.297Z,51.50
2023-01-28T20:51:06.369Z,52.27
2023-01-28T20:53:34.264Z,61.27
2023-01-28T20:56:02.059Z,58.83
2023-01-28T20:58:29.978Z,63.37
2023-01-28T21:00:57.816Z,80.43
2023-01-28T21:03:27.832Z,67.90
2023-01-28T21:05:55.705Z,70.93
2023-01-28T21:08:23.959Z,60.97
2023-01-28T21:10:51.706Z,62.43
2023-01-28T21:13:20.494Z,57.23
2023-01-28T21:15:55.966Z,59.27
2023-01-28T21:18:24.483Z,59.20
2023-01-28T21:20:55.013Z,55.27
2023-01-28T21:23:23.879Z,53.43
2023-01-28T21:25:52.458Z,54.70
2023-01-28T21:28:21.061Z,52.07
2023-01-28T21:30:48.837Z,55.97
2023-01-28T21:33:16.729Z,56.97
2023-01-28T21:35:44.869Z,52.30
2023-01-28T21:38:14.202Z,53.97
2023-01-28T21:40:42.158Z,52.97
2023-01-28T21:43:12.489Z,52.90
2023-01-28T21:45:41.210Z,54.23
2023-01-28T21:48:08.927Z,53.27
2023-01-28T21:50:56.827Z,53.30
2023-01-28T21:53:25.969Z,52.13
2023-01-28T21:55:53.798Z,55.33
2023-01-28T21:58:39.216Z,57.60
2023-01-28T22:01:10.620Z,52.83
2023-01-28T22:03:38.411Z,52.00
2023-01-28T22:06:06.707Z,51.07
2023-01-28T22:08:35.918Z,47.60
2023-01-28T22:11:05.033Z,48.10
2023-01-28T22:13:33.533Z,45.73
2023-01-28T22:16:01.571Z,47.37
2023-01-28T22:18:29.387Z,48.67
2023-01-28T22:20:58.495Z,50.77
2023-01-28T22:23:26.461Z,49.27
2023-01-28T22:25:55.819Z,49.77
2023-01-28T22:28:23.774Z,50.27
2023-01-28T22:30:51.585Z,48.27
2023-01-28T22:33:19.428Z,49.90
2023-01-28T22:35:47.440Z,50.00
2023-01-28T22:38:15.853Z,49.97
2023-01-28T22:40:43.603Z,49.70
2023-01-28T22:43:12.763Z,50.30
2023-01-28T22:45:40.557Z,49.60
2023-01-28T22:48:08.266Z,49.87
2023-01-28T22:50:36.095Z,50.50
2023-01-28T22:53:04.111Z,53.97
2023-01-28T22:55:33.494Z,54.73
2023-01-28T22:58:01.563Z,60.60
2023-01-28T23:00:30.727Z,54.63
2023-01-28T23:02:58.523Z,54.00
2023-01-28T23:05:27.158Z,52.67
2023-01-28T23:08:10.410Z,55.60
2023-01-28T23:10:38.736Z,48.43
2023-01-28T23:13:07.232Z,54.77
2023-01-28T23:15:53.682Z,51.73
2023-01-28T23:18:42.978Z,51.63
2023-01-28T23:21:35.274Z,52.13
2023-01-28T23:24:22.040Z,56.37
2023-01-28T23:26:54.504Z,48.37
2023-01-28T23:29:24.762Z,51.40
2023-01-28T23:32:00.906Z,53.50
2023-01-28T23:34:31.861Z,53.50
2023-01-28T23:36:59.665Z,52.07
2023-01-28T23:39:27.599Z,53.67
2023-01-28T23:41:55.396Z,55.80
2023-01-28T23:44:26.666Z,51.43
2023-01-28T23:46:56.350Z,51.17
2023-01-28T23:49:24.281Z,51.90
2023-01-28T23:51:52.075Z,48.83
2023-01-28T23:54:19.987Z,50.33
2023-01-28T23:56:47.767Z,52.67
2023-01-28T23:59:15.606Z,50.23
